Time;durP1;ratioP1;P1;durP2;ratioP2;P2;SDS_P1;SDS_P2;PMS_P1;PMS_P2;Temp;Humidity;BMP_temperature;BMP_pressure;BME280_temperature;BME280_humidity;BME280_pressure;Samples;Min_cycle;Max_cycle;Signal;HPM_P1;HPM_P2
2023/12/03 00:00:20;;;;;;;16.97;8.07;;;-5.40;99.90;;;-4.63;100.00;98497.41;5016847;28;20831;-79
2023/12/03 00:02:49;;;;;;;10.90;6.33;;;-5.40;99.90;;;-4.64;100.00;98494.00;5015761;28;20513;-78
2023/12/03 00:05:18;;;;;;;21.20;8.20;;;-5.40;99.90;;;-4.55;100.00;98489.34;5016244;28;20946;-79
2023/12/03 00:07:47;;;;;;;15.97;7.33;;;-5.30;99.90;;;-4.57;100.00;98489.41;5016838;28;20466;-79
2023/12/03 00:10:16;;;;;;;14.60;6.93;;;-5.30;99.90;;;-4.59;100.00;98489.50;5017447;28;20533;-80
2023/12/03 00:12:45;;;;;;;11.47;7.77;;;-5.20;99.90;;;-4.70;100.00;98486.69;5014548;28;21020;-78
2023/12/03 00:15:13;;;;;;;12.43;6.43;;;-5.50;99.90;;;-4.70;100.00;98486.69;5014940;28;20550;-79
2023/12/03 00:17:43;;;;;;;11.80;6.70;;;-5.40;99.90;;;-4.66;100.00;98488.19;5017071;28;21064;-78
2023/12/03 00:20:12;;;;;;;14.30;8.33;;;-5.40;99.90;;;-4.68;100.00;98484.88;5015367;28;20491;-79
2023/12/03 00:22:41;;;;;;;19.03;7.87;;;-5.50;99.90;;;-4.66;100.00;98483.09;5016585;28;20437;-79
2023/12/03 00:25:09;;;;;;;13.57;8.40;;;-5.50;99.90;;;-4.69;100.00;98483.25;5016881;28;20524;-79
2023/12/03 00:27:38;;;;;;;13.10;7.60;;;-5.50;99.90;;;-4.63;100.00;98477.81;5017743;28;20470;-78
2023/12/03 00:30:08;;;;;;;12.33;6.63;;;-5.40;99.90;;;-4.61;100.00;98478.53;5017863;28;20487;-78
2023/12/03 00:32:37;;;;;;;19.30;8.00;;;-5.40;99.90;;;-4.59;100.00;98481.84;5020297;28;20498;-79
2023/12/03 00:35:08;;;;;;;15.30;7.90;;;-5.40;99.90;;;-4.62;100.00;98481.19;5015673;28;20467;-78
2023/12/03 00:37:36;;;;;;;12.83;7.00;;;-5.40;99.90;;;-4.65;100.00;98484.72;5017319;28;20471;-79
2023/12/03 00:40:07;;;;;;;32.93;6.80;;;-5.40;99.90;;;-4.68;100.00;98484.88;5014996;28;20839;-78
2023/12/03 00:42:35;;;;;;;17.60;8.13;;;-5.40;99.90;;;-4.78;100.00;98481.19;5017435;28;20462;-78
2023/12/03 00:45:05;;;;;;;14.13;6.20;;;-5.50;99.90;;;-4.76;100.00;98481.94;5016623;28;20469;-78
2023/12/03 00:47:33;;;;;;;11.80;6.93;;;-5.50;99.90;;;-4.71;100.00;98487.59;5016840;28;20470;-79
2023/12/03 00:50:02;;;;;;;13.00;6.93;;;-5.50;99.90;;;-4.73;100.00;98494.50;5017289;28;20502;-80
2023/12/03 00:52:31;;;;;;;13.60;6.80;;;-5.40;99.90;;;-4.74;100.00;98490.31;5018391;28;20505;-78
2023/12/03 00:55:01;;;;;;;11.97;6.10;;;-5.50;99.90;;;-4.72;100.00;98498.69;5016298;28;20483;-78
2023/12/03 00:57:30;;;;;;;18.03;6.77;;;-5.50;99.90;;;-4.68;100.00;98497.63;5016829;28;20976;-78
2023/12/03 00:59:59;;;;;;;14.57;7.67;;;-5.50;99.90;;;-4.68;100.00;98499.34;5015919;28;21248;-78
2023/12/03 01:02:27;;;;;;;13.70;6.53;;;-5.40;99.90;;;-4.76;100.00;98504.06;5015713;28;20961;-78
2023/12/03 01:04:56;;;;;;;14.97;7.10;;;-5.50;99.90;;;-4.80;100.00;98500.00;5015590;28;20462;-78
2023/12/03 01:07:24;;;;;;;13.70;6.97;;;-5.60;99.90;;;-4.83;100.00;98503.56;5016270;28;21052;-78
2023/12/03 01:09:54;;;;;;;21.53;8.23;;;-5.50;99.90;;;-4.79;100.00;98506.78;5017216;28;20475;-78
2023/12/03 01:12:23;;;;;;;16.23;8.17;;;-5.60;99.90;;;-4.82;100.00;98507.72;5018263;28;20502;-78
2023/12/03 01:14:51;;;;;;;14.80;7.40;;;-5.60;99.90;;;-4.83;100.00;98511.22;5016361;28;20984;-78
2023/12/03 01:17:19;;;;;;;19.83;7.63;;;-5.50;99.90;;;-4.83;100.00;98503.56;5017481;28;20469;-78
2023/12/03 01:19:48;;;;;;;14.10;6.83;;;-5.60;99.90;;;-4.88;100.00;98497.88;5015704;28;20464;-78
2023/12/03 01:22:16;;;;;;;14.00;7.10;;;-5.70;99.90;;;-4.89;100.00;98501.31;5016617;28;20463;-78
2023/12/03 01:24:45;;;;;;;14.37;7.43;;;-5.60;99.90;;;-4.88;100.00;98505.50;5014515;28;20467;-78
2023/12/03 01:27:15;;;;;;;10.70;6.40;;;-5.60;99.90;;;-4.98;100.00;98512.00;5016913;28;20467;-77
2023/12/03 01:29:44;;;;;;;11.80;7.07;;;-5.80;99.90;;;-4.99;100.00;98518.00;5016367;28;20545;-78
2023/12/03 01:32:13;;;;;;;13.33;6.30;;;-5.80;99.90;;;-4.97;100.00;98528.94;5016939;28;20493;-78
2023/12/03 01:34:41;;;;;;;11.97;7.87;;;-5.80;99.90;;;-4.96;100.00;98529.78;5014922;28;21012;-78
2023/12/03 01:37:10;;;;;;;14.47;6.53;;;-5.80;99.90;;;-4.97;100.00;98530.66;5016366;28;20465;-78
2023/12/03 01:39:39;;;;;;;9.97;6.50;;;-5.80;99.90;;;-4.92;100.00;98532.06;5015866;28;20527;-78
2023/12/03 01:42:07;;;;;;;16.93;7.07;;;-5.70;99.90;;;-4.89;100.00;98525.97;5016414;28;20858;-77
2023/12/03 01:44:37;;;;;;;12.10;7.13;;;-5.70;99.90;;;-4.93;100.00;98520.25;5013904;28;21305;-78
2023/12/03 01:47:06;;;;;;;12.30;5.73;;;-5.70;99.90;;;-5.01;100.00;98529.16;5013727;28;20459;-78
2023/12/03 01:49:35;;;;;;;15.77;8.13;;;-5.80;99.90;;;-5.03;100.00;98533.53;5013275;28;20462;-77
2023/12/03 01:52:04;;;;;;;11.23;6.60;;;-5.80;99.90;;;-5.09;100.00;98539.75;5015176;28;20448;-79
2023/12/03 01:54:36;;;;;;;13.27;7.30;;;-5.80;99.90;;;-5.05;100.00;98538.69;5015945;28;20654;-78
2023/12/03 01:57:05;;;;;;;20.90;9.70;;;-5.80;99.90;;;-5.02;100.00;98537.72;5015607;28;20455;-79
2023/12/03 01:59:35;;;;;;;16.47;7.57;;;-5.70;99.90;;;-5.04;100.00;98539.53;5016296;28;20469;-78
2023/12/03 02:02:05;;;;;;;19.87;7.70;;;-5.80;99.90;;;-5.05;100.00;98538.69;5014418;28;20495;-78
2023/12/03 02:04:33;;;;;;;14.43;8.07;;;-5.80;99.90;;;-5.04;100.00;98548.00;5014112;28;20976;-78
2023/12/03 02:07:02;;;;;;;15.67;6.53;;;-5.80;99.90;;;-5.01;100.00;98540.19;5020033;28;20459;-79
2023/12/03 02:09:30;;;;;;;14.70;8.07;;;-5.70;99.90;;;-5.09;100.00;98545.69;5019231;28;20662;-78
2023/12/03 02:11:59;;;;;;;16.33;7.10;;;-5.90;99.90;;;-5.11;100.00;98549.22;5019387;28;20489;-78
2023/12/03 02:14:27;;;;;;;14.00;8.17;;;-5.90;99.90;;;-5.11;100.00;98551.75;5020427;28;21039;-78
2023/12/03 02:16:57;;;;;;;14.70;6.70;;;-5.90;99.90;;;-5.11;100.00;98541.56;5019942;28;20440;-78
2023/12/03 02:19:26;;;;;;;19.27;6.67;;;-5.80;99.90;;;-5.05;100.00;98545.53;5018802;28;20523;-78
2023/12/03 02:21:54;;;;;;;12.73;6.73;;;-5.70;99.90;;;-5.05;100.00;98540.41;5018103;28;20561;-78
2023/12/03 02:24:24;;;;;;;12.87;7.67;;;-5.80;99.90;;;-5.10;100.00;98545.75;5020369;28;20532;-78
2023/12/03 02:26:52;;;;;;;12.57;7.63;;;-5.90;99.90;;;-5.07;100.00;98553.25;5020362;28;20972;-78
2023/12/03 02:29:21;;;;;;;12.77;7.30;;;-5.70;99.90;;;-5.08;100.00;98561.81;5020377;28;20444;-78
2023/12/03 02:31:49;;;;;;;18.73;8.30;;;-5.80;99.90;;;-5.07;100.00;98545.63;5020144;28;20475;-78
2023/12/03 02:34:18;;;;;;;12.83;6.67;;;-5.80;99.90;;;-5.09;100.00;98544.84;5018099;28;20517;-77
2023/12/03 02:36:46;;;;;;;14.07;8.07;;;-5.80;99.90;;;-5.07;100.00;98548.97;5019499;28;20481;-78
2023/12/03 02:39:15;;;;;;;17.90;8.60;;;-5.80;99.90;;;-5.10;100.00;98553.38;5018478;28;20879;-79
2023/12/03 02:41:46;;;;;;;15.97;6.70;;;-5.90;99.90;;;-5.08;100.00;98551.59;5017767;28;20475;-78
2023/12/03 02:44:14;;;;;;;15.57;6.90;;;-5.90;99.90;;;-5.06;100.00;98544.69;5019777;28;20512;-78
2023/12/03 02:46:43;;;;;;;15.83;7.50;;;-5.80;99.90;;;-5.07;100.00;98550.72;5018192;28;20436;-79
2023/12/03 02:49:11;;;;;;;14.00;8.07;;;-5.80;99.90;;;-5.07;100.00;98553.25;5017376;28;20466;-78
2023/12/03 02:51:40;;;;;;;18.37;8.40;;;-5.80;99.90;;;-5.06;100.00;98559.97;5018147;28;20462;-78
2023/12/03 02:54:08;;;;;;;21.33;7.90;;;-5.80;99.90;;;-5.02;100.00;98553.84;5016592;28;20494;-78
2023/12/03 02:56:36;;;;;;;14.43;8.20;;;-5.80;99.90;;;-5.02;100.00;98561.47;5018436;28;20517;-78
2023/12/03 02:59:06;;;;;;;15.10;7.20;;;-5.70;99.90;;;-5.01;100.00;98560.59;5017609;28;21035;-78
2023/12/03 03:01:35;;;;;;;13.40;6.70;;;-5.70;99.90;;;-5.00;100.00;98564.78;5017296;28;20469;-77
2023/12/03 03:04:03;;;;;;;17.20;7.70;;;-5.70;99.90;;;-4.97;100.00;98553.59;5018166;28;20470;-78
2023/12/03 03:06:32;;;;;;;18.60;7.40;;;-5.70;99.90;;;-4.92;100.00;98560.09;5018952;28;20472;-78
2023/12/03 03:09:00;;;;;;;17.13;8.87;;;-5.60;99.90;;;-4.91;100.00;98559.22;5018873;28;21038;-78
2023/12/03 03:11:29;;;;;;;16.77;7.63;;;-5.50;99.90;;;-4.79;100.00;98566.22;5017026;28;20483;-78
2023/12/03 03:13:57;;;;;;;17.70;8.17;;;-5.40;99.90;;;-4.73;100.00;98567.66;5020800;28;20838;-78
2023/12/03 03:16:27;;;;;;;15.30;7.77;;;-5.20;99.90;;;-4.75;100.00;98565.16;5016763;28;20470;-78
2023/12/03 03:18:55;;;;;;;16.07;7.23;;;-5.20;99.90;;;-4.62;100.00;98575.56;5017886;28;20470;-78
2023/12/03 03:21:24;;;;;;;16.17;7.03;;;-5.20;99.90;;;-4.53;100.00;98579.34;5019945;28;21208;-78
2023/12/03 03:23:52;;;;;;;12.47;8.50;;;-5.00;99.90;;;-4.43;100.00;98571.13;5018951;28;20527;-78
2023/12/03 03:26:21;;;;;;;37.10;9.97;;;-5.00;99.90;;;-4.37;100.00;98570.81;5020044;28;20441;-78
2023/12/03 03:28:49;;;;;;;12.93;6.83;;;-4.90;99.90;;;-4.29;100.00;98575.50;5018054;28;20900;-78
2023/12/03 03:31:17;;;;;;;15.83;7.47;;;-4.80;99.90;;;-4.24;100.00;98582.03;5019562;28;20468;-78
2023/12/03 03:33:47;;;;;;;28.13;10.80;;;-4.80;99.90;;;-4.22;100.00;98582.75;5016882;28;20502;-78
2023/12/03 03:36:17;;;;;;;20.37;9.30;;;-4.70;99.90;;;-4.12;100.00;98585.63;5021690;28;20433;-78
2023/12/03 03:38:45;;;;;;;26.10;8.90;;;-4.70;99.90;;;-4.10;100.00;98583.84;5018418;28;20520;-78
2023/12/03 03:41:14;;;;;;;15.77;8.10;;;-4.60;99.90;;;-4.07;100.00;98586.22;5018669;28;20470;-78
2023/12/03 03:43:42;;;;;;;20.63;9.67;;;-4.50;99.90;;;-4.00;100.00;98576.50;5016951;28;20981;-78
2023/12/03 03:46:12;;;;;;;21.83;8.93;;;-4.50;99.90;;;-3.98;100.00;98588.25;5017559;28;20476;-78
2023/12/03 03:48:41;;;;;;;20.37;8.23;;;-4.50;99.90;;;-3.95;100.00;98582.97;5016837;28;20455;-78
2023/12/03 03:51:11;;;;;;;17.00;8.73;;;-4.40;99.90;;;-3.93;100.00;98588.84;5018162;28;20951;-78
2023/12/03 03:53:40;;;;;;;19.00;9.80;;;-4.40;99.90;;;-3.85;100.00;98593.53;5017919;28;20552;-78
2023/12/03 03:56:09;;;;;;;18.23;8.73;;;-4.40;99.90;;;-3.83;100.00;98587.44;5018244;28;20821;-78
2023/12/03 03:58:38;;;;;;;19.47;8.83;;;-4.30;99.90;;;-3.77;100.00;98588.81;5017462;28;20465;-77
2023/12/03 04:01:09;;;;;;;14.20;8.70;;;-4.30;99.90;;;-3.70;100.00;98596.06;5019872;28;20475;-78
2023/12/03 04:03:38;;;;;;;27.57;10.60;;;-4.30;99.90;;;-3.70;100.00;98602.91;5018244;28;20478;-78
2023/12/03 04:06:08;;;;;;;17.87;8.37;;;-4.30;99.90;;;-3.73;100.00;98608.19;5018767;28;21019;-78
2023/12/03 04:08:39;;;;;;;14.87;6.83;;;-4.10;99.90;;;-3.75;100.00;98615.91;5018460;28;20497;-78
2023/12/03 04:11:08;;;;;;;18.47;7.70;;;-4.10;99.90;;;-3.76;100.00;98614.28;5018492;28;20448;-78
2023/12/03 04:13:37;;;;;;;20.33;8.60;;;-4.10;99.90;;;-3.71;100.00;98607.19;5015934;28;20463;-78
2023/12/03 04:16:08;;;;;;;16.00;7.83;;;-4.20;99.90;;;-3.67;100.00;98618.03;5017232;28;20913;-78
2023/12/03 04:18:38;;;;;;;18.77;8.17;;;-4.20;99.90;;;-3.64;100.00;98616.16;5018535;28;20459;-78
2023/12/03 04:21:15;;;;;;;21.23;10.03;;;-4.20;99.90;;;-3.59;100.00;98618.47;5016630;28;20466;-79
2023/12/03 04:23:45;;;;;;;17.57;7.80;;;-4.20;99.90;;;-3.59;100.00;98616.72;5018906;28;20485;-78
2023/12/03 04:26:14;;;;;;;31.90;10.47;;;-4.20;99.90;;;-3.56;100.00;98611.44;5016482;28;20474;-78
2023/12/03 04:28:42;;;;;;;16.80;9.23;;;-4.20;99.90;;;-3.56;100.00;98611.44;5013359;28;20459;-77
2023/12/03 04:31:21;;;;;;;15.87;8.43;;;-4.10;99.90;;;-3.50;100.00;98609.44;5018028;28;20456;-78
2023/12/03 04:33:51;;;;;;;17.20;7.53;;;-4.20;99.90;;;-3.50;100.00;98604.31;5014104;28;20971;-78
2023/12/03 04:36:21;;;;;;;26.83;8.47;;;-4.20;99.90;;;-3.54;100.00;98611.38;5014906;28;20549;-78
2023/12/03 04:38:53;;;;;;;15.00;7.60;;;-4.30;99.90;;;-3.50;100.00;98612.00;5016851;28;20482;-78
2023/12/03 04:41:21;;;;;;;15.10;7.23;;;-4.30;99.90;;;-3.47;100.00;98616.97;5015198;28;20468;-78
2023/12/03 04:43:50;;;;;;;19.30;9.70;;;-4.20;99.90;;;-3.50;100.00;98605.16;5016268;28;20507;-78
2023/12/03 04:46:18;;;;;;;16.00;8.80;;;-4.10;99.90;;;-3.53;100.00;98614.72;5014219;28;20456;-78
2023/12/03 04:48:47;;;;;;;14.83;7.73;;;-4.10;99.90;;;-3.58;100.00;98615.84;5013945;28;20478;-78
2023/12/03 04:51:15;;;;;;;13.77;7.90;;;-4.20;99.90;;;-3.60;100.00;98620.19;5014428;28;20467;-78
2023/12/03 04:53:44;;;;;;;15.83;7.97;;;-4.40;99.90;;;-3.66;100.00;98609.47;5015317;28;20460;-78
2023/12/03 04:56:17;;;;;;;23.67;8.70;;;-4.40;99.90;;;-3.71;100.00;98617.38;5017960;28;20462;-77
2023/12/03 04:58:46;;;;;;;18.23;8.80;;;-4.50;99.90;;;-3.74;100.00;98612.47;5016467;28;20475;-77
2023/12/03 05:01:14;;;;;;;35.63;10.70;;;-4.50;99.90;;;-3.66;100.00;98615.41;5016354;28;20470;-77
2023/12/03 05:03:46;;;;;;;17.17;8.70;;;-4.50;99.90;;;-3.70;100.00;98621.59;5015067;28;20486;-78
2023/12/03 05:06:14;;;;;;;23.13;9.30;;;-4.40;99.90;;;-3.70;100.00;98626.72;5017649;28;20500;-78
2023/12/03 05:08:44;;;;;;;17.00;7.63;;;-4.40;99.90;;;-3.74;100.00;98614.19;5016360;28;20467;-77
2023/12/03 05:11:14;;;;;;;17.27;8.60;;;-4.50;99.90;;;-3.76;100.00;98618.56;5017836;28;20873;-78
2023/12/03 05:13:43;;;;;;;16.50;8.30;;;-4.40;99.90;;;-3.74;100.00;98612.47;5016029;28;20491;-78
2023/12/03 05:16:12;;;;;;;14.73;7.43;;;-4.50;99.90;;;-3.73;100.00;98620.94;5016505;28;20499;-78
2023/12/03 05:18:40;;;;;;;19.87;9.40;;;-4.50;99.90;;;-3.73;100.00;98619.22;5015756;28;20476;-78
2023/12/03 05:21:09;;;;;;;25.27;9.80;;;-4.50;99.90;;;-3.77;100.00;98627.94;5016043;28;20533;-78
2023/12/03 05:23:38;;;;;;;16.33;8.20;;;-4.60;99.90;;;-3.78;100.00;98631.41;5015187;28;20888;-77
2023/12/03 05:26:07;;;;;;;20.60;8.20;;;-4.50;99.90;;;-3.81;100.00;98631.56;5018121;28;20472;-78
2023/12/03 05:28:37;;;;;;;22.30;8.97;;;-4.60;99.90;;;-3.80;100.00;98628.13;5015116;28;20548;-78
2023/12/03 05:31:06;;;;;;;18.17;7.40;;;-4.50;99.90;;;-3.78;100.00;98626.28;5013967;28;20480;-78
2023/12/03 05:33:34;;;;;;;16.53;8.40;;;-4.60;99.90;;;-3.85;100.00;98629.28;5014856;28;20508;-77
2023/12/03 05:36:03;;;;;;;15.30;8.43;;;-4.70;99.90;;;-3.89;100.00;98622.69;5009333;28;20475;-74
2023/12/03 05:38:31;;;;;;;17.23;9.07;;;-4.70;99.90;;;-3.88;100.00;98634.53;5014473;28;21021;-78
2023/12/03 05:41:00;;;;;;;14.70;7.47;;;-4.70;99.90;;;-3.87;100.00;98636.19;5014413;28;20471;-78
2023/12/03 05:43:28;;;;;;;16.10;8.63;;;-4.60;99.90;;;-3.89;100.00;98632.91;5014688;28;20464;-78
2023/12/03 05:45:58;;;;;;;14.30;7.90;;;-4.60;99.90;;;-3.91;100.00;98632.97;5013414;28;20464;-78
2023/12/03 05:48:26;;;;;;;22.80;8.37;;;-4.60;99.90;;;-3.92;100.00;98633.88;5008096;28;20494;-76
2023/12/03 05:50:56;;;;;;;20.20;9.23;;;-4.70;99.90;;;-3.92;100.00;98639.00;5012338;28;20470;-78
2023/12/03 05:53:24;;;;;;;14.20;8.40;;;-4.60;99.90;;;-3.89;100.00;98641.41;5015508;28;20477;-77
2023/12/03 05:55:52;;;;;;;21.87;8.73;;;-4.60;99.90;;;-3.88;100.00;98640.47;5015398;28;20587;-78
2023/12/03 05:58:21;;;;;;;17.93;7.80;;;-4.60;99.90;;;-3.90;100.00;98636.38;5013474;28;20849;-78
2023/12/03 06:00:49;;;;;;;22.80;8.30;;;-4.60;99.90;;;-3.88;100.00;98630.25;5012331;28;20825;-77
2023/12/03 06:03:19;;;;;;;17.60;9.10;;;-4.60;99.90;;;-3.88;100.00;98635.38;5014628;28;20584;-78
2023/12/03 06:05:48;;;;;;;18.97;8.33;;;-4.70;99.90;;;-3.94;100.00;98643.38;5012051;28;20464;-78
2023/12/03 06:08:17;;;;;;;21.73;10.07;;;-4.70;99.90;;;-4.00;100.00;98636.03;5013729;28;20447;-78
2023/12/03 06:10:45;;;;;;;19.90;9.20;;;-4.80;99.90;;;-3.99;100.00;98637.66;5012383;28;20468;-76
2023/12/03 06:13:15;;;;;;;24.47;9.17;;;-4.70;99.90;;;-3.98;100.00;98633.38;5013416;28;20956;-79
2023/12/03 06:15:44;;;;;;;14.53;7.93;;;-4.80;99.90;;;-3.97;100.00;98628.22;5012022;28;20498;-78
2023/12/03 06:18:13;;;;;;;14.13;8.03;;;-4.70;99.90;;;-4.00;100.00;98628.38;5013554;28;20559;-78
2023/12/03 06:20:43;;;;;;;17.40;9.27;;;-4.80;99.90;;;-3.99;100.00;98624.91;5011689;28;20461;-77
2023/12/03 06:23:13;;;;;;;22.50;8.30;;;-4.80;99.90;;;-4.06;100.00;98626.13;5014426;28;20463;-77
2023/12/03 06:25:45;;;;;;;19.50;8.50;;;-4.80;99.90;;;-4.02;100.00;98625.06;5016018;28;20887;-78
2023/12/03 06:28:15;;;;;;;17.77;9.27;;;-4.80;99.90;;;-4.06;100.00;98621.84;5015681;28;20454;-79
2023/12/03 06:30:43;;;;;;;14.87;8.87;;;-4.80;99.90;;;-4.06;100.00;98641.47;5015348;28;20851;-78
2023/12/03 06:33:13;;;;;;;17.70;7.80;;;-4.80;99.90;;;-4.11;100.00;98638.34;5015151;28;20507;-78
2023/12/03 06:35:43;;;;;;;20.40;8.90;;;-4.80;99.90;;;-4.13;100.00;98640.16;5013887;28;20494;-77
2023/12/03 06:38:11;;;;;;;18.87;8.40;;;-4.90;99.90;;;-4.15;100.00;98645.34;5015499;28;20472;-78
2023/12/03 06:40:40;;;;;;;13.27;7.37;;;-4.90;99.90;;;-4.23;100.00;98644.06;5015601;28;20474;-78
2023/12/03 06:43:09;;;;;;;17.83;7.60;;;-5.00;99.90;;;-4.23;100.00;98651.72;5017105;28;20475;-78
2023/12/03 06:45:38;;;;;;;17.40;8.27;;;-5.00;99.90;;;-4.22;100.00;98650.84;5013627;28;20482;-78
2023/12/03 06:48:07;;;;;;;23.63;9.97;;;-5.00;99.90;;;-4.23;100.00;98660.22;5011969;28;20470;-78
2023/12/03 06:50:36;;;;;;;15.43;8.13;;;-5.00;99.90;;;-4.29;100.00;98660.56;5013473;28;20445;-78
2023/12/03 06:53:06;;;;;;;16.40;7.90;;;-5.00;99.90;;;-4.30;100.00;98655.50;5017371;28;20473;-78
2023/12/03 06:55:35;;;;;;;18.90;7.87;;;-5.10;99.90;;;-4.33;100.00;98664.16;5016149;28;20497;-80
2023/12/03 06:58:03;;;;;;;15.50;7.30;;;-5.00;99.90;;;-4.31;100.00;98670.03;5016870;28;20460;-79
2023/12/03 07:00:32;;;;;;;15.33;7.20;;;-5.00;99.90;;;-4.34;100.00;98674.47;5018279;28;20475;-78
2023/12/03 07:03:01;;;;;;;13.97;8.50;;;-5.00;99.90;;;-4.36;100.00;98678.81;5019431;28;20460;-78
2023/12/03 07:05:29;;;;;;;13.00;7.13;;;-4.90;99.90;;;-4.34;100.00;98687.22;5016778;28;20437;-79
2023/12/03 07:07:58;;;;;;;15.87;8.13;;;-5.10;99.90;;;-4.36;100.00;98697.50;5019317;28;20474;-78
2023/12/03 07:10:28;;;;;;;17.10;8.37;;;-5.10;99.90;;;-4.36;100.00;98709.44;5017513;28;20467;-79
2023/12/03 07:12:57;;;;;;;19.87;8.50;;;-5.10;99.90;;;-4.33;100.00;98710.09;5014657;28;20441;-79
2023/12/03 07:15:26;;;;;;;23.43;8.60;;;-5.00;99.90;;;-4.34;100.00;98712.75;5015159;28;21001;-79
2023/12/03 07:17:55;;;;;;;21.97;8.80;;;-5.00;99.90;;;-4.30;100.00;98714.22;5018454;28;20463;-79
2023/12/03 07:20:25;;;;;;;19.43;7.80;;;-5.00;99.90;;;-4.26;100.00;98718.25;5015036;28;20491;-79
2023/12/03 07:22:55;;;;;;;19.40;10.43;;;-5.00;99.90;;;-4.25;100.00;98725.03;5016091;28;20472;-79
2023/12/03 07:25:24;;;;;;;17.60;8.67;;;-4.90;99.90;;;-4.25;100.00;98720.75;5017181;28;20468;-78
2023/12/03 07:27:55;;;;;;;16.80;7.50;;;-4.90;99.90;;;-4.25;100.00;98722.47;5016435;28;20457;-79
2023/12/03 07:30:25;;;;;;;14.80;8.57;;;-4.80;99.90;;;-4.23;100.00;98726.59;5015921;28;20930;-79
2023/12/03 07:32:53;;;;;;;19.10;9.00;;;-4.80;99.90;;;-4.22;100.00;98724.84;5019329;28;20560;-79
2023/12/03 07:35:22;;;;;;;18.40;9.63;;;-4.80;99.90;;;-4.20;100.00;98725.63;5015593;28;20978;-78
2023/12/03 07:37:51;;;;;;;13.73;7.67;;;-4.80;99.90;;;-4.17;100.00;98725.47;5015198;28;20441;-78
2023/12/03 07:40:19;;;;;;;12.97;6.90;;;-4.80;99.90;;;-4.20;100.00;98725.63;5013050;28;20459;-78
2023/12/03 07:42:48;;;;;;;30.77;9.00;;;-4.80;99.90;;;-4.14;100.00;98721.03;5015851;28;20474;-77
2023/12/03 07:45:18;;;;;;;13.13;8.30;;;-4.80;99.90;;;-4.11;100.00;98714.94;5014130;28;20467;-78
2023/12/03 07:47:50;;;;;;;19.10;8.67;;;-4.70;99.90;;;-4.07;100.00;98712.16;5015078;28;21009;-78
2023/12/03 07:50:19;;;;;;;30.27;9.90;;;-4.70;99.90;;;-4.08;100.00;98714.75;5014080;28;20503;-79
2023/12/03 07:52:47;;;;;;;15.73;7.40;;;-4.80;99.90;;;-4.00;100.00;98716.91;5017267;28;20547;-78
2023/12/03 07:55:16;;;;;;;23.40;9.20;;;-4.70;99.90;;;-3.98;100.00;98715.09;5014308;28;20917;-78
2023/12/03 07:57:45;;;;;;;20.70;10.13;;;-4.70;99.90;;;-3.97;100.00;98715.03;5015881;28;20527;-79
2023/12/03 08:00:14;;;;;;;20.07;9.10;;;-4.60;99.90;;;-3.93;100.00;98718.25;5016358;28;20469;-79
2023/12/03 08:02:44;;;;;;;18.30;8.57;;;-4.60;99.90;;;-3.89;100.00;98719.75;5016131;28;20832;-79
2023/12/03 08:05:13;;;;;;;21.20;8.73;;;-4.60;99.90;;;-3.86;100.00;98720.41;5015209;28;20472;-78
2023/12/03 08:07:41;;;;;;;19.77;8.90;;;-4.50;99.90;;;-3.83;100.00;98720.25;5013431;28;21207;-78
2023/12/03 08:10:10;;;;;;;19.07;8.67;;;-4.50;99.90;;;-3.76;100.00;98726.69;5017751;28;20491;-74
2023/12/03 08:12:39;;;;;;;18.13;9.80;;;-4.50;99.90;;;-3.72;100.00;98725.63;5012569;28;20467;-78
2023/12/03 08:15:08;;;;;;;27.50;10.37;;;-4.30;99.90;;;-3.68;100.00;98719.41;5014224;28;20464;-80
2023/12/03 08:17:38;;;;;;;22.83;8.43;;;-4.30;99.90;;;-3.61;100.00;98722.50;5015274;28;21544;-80
2023/12/03 08:20:10;;;;;;;22.73;10.80;;;-4.30;99.90;;;-3.56;100.00;98726.44;5014292;28;20464;-80
2023/12/03 08:22:38;;;;;;;21.50;9.70;;;-4.20;99.90;;;-3.50;100.00;98722.72;5016554;28;20458;-79
2023/12/03 08:25:08;;;;;;;18.63;8.67;;;-4.20;99.90;;;-3.46;100.00;98720.81;5013840;28;20478;-80
2023/12/03 08:27:40;;;;;;;22.00;10.53;;;-4.10;99.90;;;-3.42;100.00;98725.69;5017095;28;20464;-81
2023/12/03 08:30:09;;;;;;;25.30;10.07;;;-3.90;99.90;;;-3.39;100.00;98714.47;5013852;28;20542;-80
2023/12/03 08:32:38;;;;;;;21.60;9.87;;;-3.90;99.90;;;-3.36;100.00;98715.13;5015683;28;20491;-81
2023/12/03 08:35:08;;;;;;;23.30;11.43;;;-3.90;99.90;;;-3.35;100.00;98721.06;5014330;28;20470;-80
2023/12/03 08:37:37;;;;;;;15.53;8.60;;;-3.90;99.90;;;-3.29;100.00;98724.09;5012693;28;20535;-80
2023/12/03 08:40:09;;;;;;;25.20;10.67;;;-3.90;99.90;;;-3.27;100.00;98724.03;5012205;28;20979;-81
2023/12/03 08:42:39;;;;;;;19.87;9.90;;;-3.90;99.90;;;-3.24;100.00;98718.75;5017405;28;20472;-80
2023/12/03 08:45:08;;;;;;;18.37;9.97;;;-3.80;99.90;;;-3.19;100.00;98714.19;5014300;28;20475;-80
2023/12/03 08:47:36;;;;;;;20.03;8.47;;;-3.70;99.90;;;-3.18;100.00;98708.16;5014771;28;20457;-78
2023/12/03 08:50:08;;;;;;;20.83;8.23;;;-3.60;99.90;;;-3.14;100.00;98714.75;5009964;28;20978;-79
2023/12/03 08:52:37;;;;;;;21.10;9.60;;;-3.70;99.90;;;-3.08;100.00;98709.28;5008207;28;20467;-78
2023/12/03 08:55:08;;;;;;;22.80;9.83;;;-3.50;99.90;;;-3.04;100.00;98710.78;5011513;28;20457;-78
2023/12/03 08:57:36;;;;;;;20.90;9.80;;;-3.50;99.90;;;-3.00;100.00;98706.31;5014148;28;21093;-78
2023/12/03 09:00:08;;;;;;;19.33;9.00;;;-3.60;99.90;;;-2.96;100.00;98713.75;5018290;28;21024;-78
2023/12/03 09:02:37;;;;;;;20.10;9.00;;;-3.40;99.90;;;-2.94;100.00;98716.19;5016080;28;20492;-78
2023/12/03 09:05:08;;;;;;;18.70;10.37;;;-3.40;99.90;;;-2.94;100.00;98711.91;5017338;28;20465;-79
2023/12/03 09:07:36;;;;;;;20.03;9.57;;;-3.30;99.90;;;-2.88;100.00;98711.56;5016082;28;20470;-78
2023/12/03 09:10:07;;;;;;;22.90;9.90;;;-3.20;99.90;;;-2.82;100.00;98708.66;5016850;28;20515;-78
2023/12/03 09:12:35;;;;;;;16.83;8.67;;;-3.30;99.90;;;-2.73;100.00;98708.13;5013906;28;21062;-78
2023/12/03 09:15:05;;;;;;;20.83;9.13;;;-3.20;99.90;;;-2.65;100.00;98698.28;5015146;28;20470;-78
2023/12/03 09:17:33;;;;;;;59.23;24.20;;;-3.10;99.90;;;-2.58;100.00;98689.34;5016285;28;20505;-79
2023/12/03 09:20:02;;;;;;;28.03;11.77;;;-3.10;99.90;;;-2.49;100.00;98694.81;5016574;28;20897;-77
2023/12/03 09:22:32;;;;;;;20.57;8.67;;;-3.00;99.90;;;-2.40;100.00;98704.53;5015040;28;20470;-77
2023/12/03 09:25:00;;;;;;;12.70;6.50;;;-2.90;99.90;;;-2.34;100.00;98704.16;5015819;28;20523;-77
2023/12/03 09:27:28;;;;;;;19.43;6.97;;;-2.80;99.90;;;-2.27;100.00;98708.00;5015450;28;20471;-77
2023/12/03 09:29:57;;;;;;;12.23;6.37;;;-2.80;99.90;;;-2.21;100.00;98705.06;5014886;28;20458;-78
2023/12/03 09:32:25;;;;;;;18.77;6.40;;;-2.80;99.90;;;-2.15;100.00;98707.25;5014612;28;20476;-77
2023/12/03 09:34:54;;;;;;;12.50;6.67;;;-2.70;99.90;;;-2.09;100.00;98702.63;5017741;28;20483;-77
2023/12/03 09:37:22;;;;;;;10.30;5.37;;;-2.70;99.90;;;-2.04;100.00;98704.88;5015101;28;21039;-77
2023/12/03 09:39:52;;;;;;;14.40;6.77;;;-2.50;99.90;;;-2.01;100.00;98707.25;5015364;28;20486;-78
2023/12/03 09:42:27;;;;;;;15.30;7.63;;;-2.60;99.90;;;-1.97;100.00;98716.41;5010841;28;20476;-77
2023/12/03 09:45:03;;;;;;;13.70;7.17;;;-2.50;99.90;;;-1.92;100.00;98716.97;5014710;28;20465;-78
2023/12/03 09:47:36;;;;;;;12.73;6.43;;;-2.40;99.90;;;-1.88;100.00;98715.03;5011906;28;20453;-77
2023/12/03 09:50:08;;;;;;;19.07;8.80;;;-2.40;99.90;;;-1.86;100.00;98718.31;5015133;28;20475;-78
2023/12/03 09:52:43;;;;;;;19.37;6.57;;;-2.30;99.90;;;-1.81;100.00;98726.56;5013025;28;20476;-78
2023/12/03 09:55:15;;;;;;;18.17;8.73;;;-2.40;99.90;;;-1.77;100.00;98722.91;5014138;28;20632;-78
2023/12/03 09:57:47;;;;;;;12.70;6.30;;;-2.30;99.90;;;-1.74;100.00;98723.53;5013150;28;21039;-78
2023/12/03 10:00:18;;;;;;;15.03;7.47;;;-2.20;99.90;;;-1.68;100.00;98722.34;5013603;28;20477;-78
2023/12/03 10:02:50;;;;;;;14.00;6.20;;;-2.10;99.90;;;-1.64;100.00;98722.06;5012436;28;20820;-78
2023/12/03 10:05:19;;;;;;;12.33;6.67;;;-2.20;99.90;;;-1.57;100.00;98725.91;5015590;28;20462;-78
2023/12/03 10:07:49;;;;;;;17.17;8.10;;;-2.10;99.90;;;-1.53;100.00;98721.41;5014329;28;20513;-79
2023/12/03 10:10:22;;;;;;;10.43;6.57;;;-2.10;99.90;;;-1.47;100.00;98726.16;5012965;28;20474;-78
2023/12/03 10:12:53;;;;;;;15.00;7.00;;;-1.90;99.90;;;-1.43;100.00;98724.22;5015466;28;20469;-79